Time,TemperatureF,DewpointF,PressureIn,WindDirection,WindDirectionDegrees,WindSpeedMPH,WindSpeedGustMPH,Humidity,HourlyPrecipIn,Conditions,Clouds,dailyrainin,SoftwareType,DateUTC
2013-03-14 00:00:00,49.3,29.9,30.22,NW,320,7.0,9.0,47,0.00,OVC,OVC,0.00,WeatherDisplay:10.37,2013-03-14 04:00:00,
2013-03-14 00:02:00,49.3,29.9,30.22,NE,45,9.7,9.7,47,0.00,OVC,,0.00,WeatherDisplay:10.37,2013-03-14 04:02:00,
2013-03-14 00:07:00,48.9,29.0,30.22,North,0,10.4,10.4,46,0.00,OVC,,0.00,WeatherDisplay:10.37,2013-03-14 04:07:00,
2013-03-14 00:12:00,48.7,28.9,30.23,NNW,338,9.2,9.2,46,0.00,OVC,,0.00,WeatherDisplay:10.37,2013-03-14 04:12:00,
2013-03-14 00:17:00,48.6,28.2,30.23,North,0,6.9,6.9,45,0.00,OVC,,0.00,WeatherDisplay:10.37,2013-03-14 04:17:00,
2013-03-14 00:22:00,48.2,27.8,30.23,NNW,338,6.9,6.9,45,0.00,OVC,,0.00,WeatherDisplay:10.37,2013-03-14 04:22:00,
2013-03-14 00:27:00,48.0,27.7,30.23,NNE,22,4.6,5.6,45,0.00,OVC,,0.00,WeatherDisplay:10.37,2013-03-14 04:27:00,
2013-03-14 00:32:00,47.8,27.5,30.23,NE,45,8.1,8.1,45,0.00,OVC,,0.00,WeatherDisplay:10.37,2013-03-14 04:32:00,
2013-03-14 00:37:00,47.7,27.3,30.23,WSW,248,5.8,8.1,45,0.00,OVC,,0.00,WeatherDisplay:10.37,2013-03-14 04:37:00,
2013-03-14 00:42:00,47.3,27.0,30.23,WNW,292,3.5,5.4,45,0.00,OVC,,0.00,WeatherDisplay:10.37,2013-03-14 04:42:00,
2013-03-14 00:47:00,47.1,26.8,30.23,NNW,338,9.2,9.2,45,0.00,OVC,,0.00,WeatherDisplay:10.37,2013-03-14 04:47:00,
2013-03-14 00:52:00,47.1,26.8,30.23,West,270,6.9,6.9,45,0.00,OVC,,0.00,WeatherDisplay:10.37,2013-03-14 04:52:00,
2013-03-14 00:57:00,46.9,26.1,30.23,WNW,292,8.1,8.1,44,0.00,OVC,,0.00,WeatherDisplay:10.37,2013-03-14 04:57:00,
2013-03-14 01:02:00,46.8,26.5,30.24,NNW,338,4.7,4.7,45,0.00,OVC,,0.00,WeatherDisplay:10.37,2013-03-14 05:02:00,
2013-03-14 01:07:00,46.6,26.4,30.24,NW,315,4.6,4.6,45,0.00,OVC,,0.00,WeatherDisplay:10.37,2013-03-14 05:07:00,
2013-03-14 01:12:00,46.4,26.2,30.23,North,0,4.6,4.6,45,0.00,BKN,,0.00,WeatherDisplay:10.37,2013-03-14 05:12:00,
2013-03-14 01:17:00,46.0,25.3,30.24,North,0,10.4,10.4,44,0.00,BKN,,0.00,WeatherDisplay:10.37,2013-03-14 05:17:00,
2013-03-14 01:22:00,45.9,25.7,30.24,NNW,338,6.9,6.9,45,0.00,BKN,,0.00,WeatherDisplay:10.37,2013-03-14 05:22:00,
2013-03-14 01:27:00,45.7,25.5,30.24,NNW,338,5.8,5.8,45,0.00,BKN,,0.00,WeatherDisplay:10.37,2013-03-14 05:27:00,
2013-03-14 01:33:00,45.5,25.4,30.24,North,0,8.1,8.1,45,0.00,BKN,,0.00,WeatherDisplay:10.37,2013-03-14 05:33:00,
2013-03-14 01:38:00,45.3,25.2,30.24,North,0,5.8,5.8,45,0.00,BKN,,0.00,WeatherDisplay:10.37,2013-03-14 05:38:00,
2013-03-14 01:43:00,45.0,25.4,30.25,NNW,338,5.8,5.8,46,0.00,BKN,,0.00,WeatherDisplay:10.37,2013-03-14 05:43:00,
2013-03-14 01:48:00,45.0,25.4,30.25,WNW,292,4.6,4.6,46,0.00,BKN,,0.00,WeatherDisplay:10.37,2013-03-14 05:48:00,
2013-03-14 01:53:00,44.8,25.8,30.25,North,0,4.6,4.6,47,0.00,BKN,,0.00,WeatherDisplay:10.37,2013-03-14 05:53:00,
2013-03-14 01:58:00,44.4,25.4,30.25,NNW,338,3.5,3.5,47,0.00,BKN,,0.00,WeatherDisplay:10.37,2013-03-14 05:58:00,
2013-03-14 02:03:00,44.2,25.3,30.25,NNW,338,4.6,4.6,47,0.00,BKN,,0.00,WeatherDisplay:10.37,2013-03-14 06:03:00,
2013-03-14 02:08:00,44.1,24.6,30.25,North,0,10.4,10.4,46,0.00,BKN,,0.00,WeatherDisplay:10.37,2013-03-14 06:08:00,
2013-03-14 02:13:00,43.7,24.8,30.26,NNW,338,5.8,5.8,47,0.00,CLR,,0.00,WeatherDisplay:10.37,2013-03-14 06:13:00,
2013-03-14 02:18:00,43.5,24.6,30.26,NNE,22,9.9,9.9,47,0.00,CLR,,0.00,WeatherDisplay:10.37,2013-03-14 06:18:00,
2013-03-14 02:23:00,43.3,23.9,30.26,North,0,5.8,5.8,46,0.00,CLR,,0.00,WeatherDisplay:10.37,2013-03-14 06:23:00,
2013-03-14 02:28:00,43.2,23.8,30.26,North,0,6.9,6.9,46,0.00,CLR,,0.00,WeatherDisplay:10.37,2013-03-14 06:28:00,
2013-03-14 02:33:00,43.0,23.6,30.26,NNW,338,5.8,6.7,46,0.00,CLR,,0.00,WeatherDisplay:10.37,2013-03-14 06:33:00,
2013-03-14 02:38:00,42.8,23.9,30.26,WNW,292,4.6,4.6,47,0.00,CLR,,0.00,WeatherDisplay:10.37,2013-03-14 06:38:00,
2013-03-14 02:43:00,42.8,23.4,30.26,NNW,338,6.9,9.0,46,0.00,CLR,,0.00,WeatherDisplay:10.37,2013-03-14 06:43:00,
2013-03-14 02:48:00,42.6,23.3,30.26,NNW,338,9.4,9.4,46,0.00,CLR,,0.00,WeatherDisplay:10.37,2013-03-14 06:48:00,
2013-03-14 02:53:00,42.4,23.6,30.26,NNW,338,9.2,9.2,47,0.00,CLR,,0.00,WeatherDisplay:10.37,2013-03-14 06:53:00,
2013-03-14 02:58:00,42.4,23.6,30.27,NNW,338,5.9,5.9,47,0.00,CLR,,0.00,WeatherDisplay:10.37,2013-03-14 06:58:00,
2013-03-14 03:03:00,42.3,23.4,30.27,North,0,6.9,6.9,47,0.00,CLR,,0.00,WeatherDisplay:10.37,2013-03-14 07:03:00,
2013-03-14 03:08:00,42.1,23.3,30.27,NW,315,9.2,9.2,47,0.00,CLR,,0.00,WeatherDisplay:10.37,2013-03-14 07:08:00,
2013-03-14 03:13:00,42.1,23.8,30.27,NW,315,5.2,5.2,48,0.00,CLR,,0.00,WeatherDisplay:10.37,2013-03-14 07:13:00,
2013-03-14 03:18:00,41.7,22.9,30.27,NW,315,9.2,9.2,47,0.00,CLR,,0.00,WeatherDisplay:10.37,2013-03-14 07:18:00,
2013-03-14 03:23:00,41.5,22.8,30.27,North,0,8.1,8.1,47,0.00,CLR,,0.00,WeatherDisplay:10.37,2013-03-14 07:23:00,
2013-03-14 03:28:00,41.4,22.6,30.27,NNW,338,9.2,9.2,47,0.00,CLR,,0.00,WeatherDisplay:10.37,2013-03-14 07:28:00,
2013-03-14 03:33:00,41.2,22.5,30.27,NW,315,10.7,10.7,47,0.00,CLR,,0.00,WeatherDisplay:10.37,2013-03-14 07:33:00,
2013-03-14 03:38:00,41.0,22.3,30.28,NNW,338,8.1,8.1,47,0.00,CLR,,0.00,WeatherDisplay:10.37,2013-03-14 07:38:00,
2013-03-14 03:43:00,41.0,22.8,30.27,NNW,338,8.1,8.1,48,0.00,CLR,,0.00,WeatherDisplay:10.37,2013-03-14 07:43:00,
2013-03-14 03:48:00,40.8,22.6,30.27,North,0,6.9,6.9,48,0.00,CLR,,0.00,WeatherDisplay:10.37,2013-03-14 07:48:00,
2013-03-14 03:53:00,40.6,22.9,30.27,ESE,112,4.7,4.7,49,0.00,CLR,,0.00,WeatherDisplay:10.37,2013-03-14 07:53:00,
2013-03-14 03:58:00,40.5,22.8,30.28,North,0,9.2,9.2,49,0.00,CLR,,0.00,WeatherDisplay:10.37,2013-03-14 07:58:00,
2013-03-14 04:03:00,40.3,22.6,30.28,NNW,338,8.1,8.1,49,0.00,CLR,,0.00,WeatherDisplay:10.37,2013-03-14 08:03:00,
2013-03-14 04:08:00,39.9,22.3,30.28,SW,225,6.2,6.2,49,0.00,CLR,,0.00,WeatherDisplay:10.37,2013-03-14 08:08:00,
2013-03-14 04:13:00,39.7,22.1,30.28,WNW,292,6.9,6.9,49,0.00,CLR,,0.00,WeatherDisplay:10.37,2013-03-14 08:13:00,
2013-03-14 04:18:00,39.6,22.0,30.28,NNW,338,5.8,5.8,49,0.00,CLR,,0.00,WeatherDisplay:10.37,2013-03-14 08:18:00,
2013-03-14 04:23:00,39.4,21.8,30.29,NNW,338,4.6,4.6,49,0.00,CLR,,0.00,WeatherDisplay:10.37,2013-03-14 08:23:00,
2013-03-14 04:28:00,39.2,21.6,30.29,NW,315,6.9,6.9,49,0.00,CLR,,0.00,WeatherDisplay:10.37,2013-03-14 08:28:00,
2013-03-14 04:33:00,39.0,21.5,30.29,NNW,338,6.9,6.9,49,0.00,CLR,,0.00,WeatherDisplay:10.37,2013-03-14 08:33:00,
2013-03-14 04:38:00,38.8,21.8,30.29,NNW,338,7.6,7.6,50,0.00,CLR,,0.00,WeatherDisplay:10.37,2013-03-14 08:38:00,
2013-03-14 04:43:00,38.7,21.6,30.29,NW,315,6.0,6.0,50,0.00,CLR,,0.00,WeatherDisplay:10.37,2013-03-14 08:43:00,
2013-03-14 04:48:00,38.5,21.4,30.30,NNW,338,5.4,5.4,50,0.00,CLR,,0.00,WeatherDisplay:10.37,2013-03-14 08:48:00,
2013-03-14 04:53:00,38.3,21.7,30.30,NNW,338,6.2,6.2,51,0.00,CLR,,0.00,WeatherDisplay:10.37,2013-03-14 08:53:00,
2013-03-14 04:58:00,38.1,21.6,30.30,WSW,248,5.8,5.8,51,0.00,CLR,,0.00,WeatherDisplay:10.37,2013-03-14 08:58:00,
2013-03-14 05:03:00,37.9,21.4,30.30,NNW,338,5.8,5.8,51,0.00,CLR,,0.00,WeatherDisplay:10.37,2013-03-14 09:03:00,
2013-03-14 05:08:00,37.8,21.2,30.30,North,0,9.2,9.2,51,0.00,CLR,,0.00,WeatherDisplay:10.37,2013-03-14 09:08:00,
2013-03-14 05:13:00,37.6,21.1,30.30,NE,45,8.1,8.1,51,0.00,CLR,,0.00,WeatherDisplay:10.37,2013-03-14 09:13:00,
2013-03-14 05:18:00,37.4,20.9,30.30,NNW,338,8.1,8.1,51,0.00,CLR,,0.00,WeatherDisplay:10.37,2013-03-14 09:18:00,
2013-03-14 05:23:00,37.2,21.2,30.31,NW,315,8.1,8.1,52,0.00,CLR,,0.00,WeatherDisplay:10.37,2013-03-14 09:23:00,
2013-03-14 05:28:00,37.0,21.0,30.30,NW,315,5.8,5.8,52,0.00,CLR,,0.00,WeatherDisplay:10.37,2013-03-14 09:28:00,
2013-03-14 05:33:00,36.9,20.9,30.31,NNW,338,4.6,4.6,52,0.00,CLR,,0.00,WeatherDisplay:10.37,2013-03-14 09:33:00,
2013-03-14 05:38:00,36.7,21.1,30.31,NNW,338,5.8,5.8,53,0.00,CLR,,0.00,WeatherDisplay:10.37,2013-03-14 09:38:00,
2013-03-14 05:43:00,36.7,21.1,30.31,NNW,338,8.1,8.1,53,0.00,CLR,,0.00,WeatherDisplay:10.37,2013-03-14 09:43:00,
2013-03-14 05:48:00,36.5,21.0,30.31,NNE,22,5.4,5.4,53,0.00,CLR,,0.00,WeatherDisplay:10.37,2013-03-14 09:48:00,
2013-03-14 05:53:00,36.3,20.4,30.32,NW,315,9.2,9.2,52,0.00,CLR,,0.00,WeatherDisplay:10.37,2013-03-14 09:53:00,
2013-03-14 05:58:00,36.3,20.4,30.32,North,0,4.6,4.6,52,0.00,CLR,,0.00,WeatherDisplay:10.37,2013-03-14 09:58:00,
2013-03-14 06:03:00,36.3,20.4,30.32,NNE,22,8.3,8.3,52,0.00,CLR,,0.00,WeatherDisplay:10.37,2013-03-14 10:03:00,
2013-03-14 06:08:00,36.1,20.2,30.32,WNW,292,4.6,4.6,52,0.00,CLR,,0.00,WeatherDisplay:10.37,2013-03-14 10:08:00,
2013-03-14 06:13:00,36.0,20.0,30.32,NNW,338,5.2,5.2,52,0.00,CLR,,0.00,WeatherDisplay:10.37,2013-03-14 10:13:00,
2013-03-14 06:18:00,36.0,20.0,30.33,WSW,248,5.8,5.8,52,0.00,CLR,,0.00,WeatherDisplay:10.37,2013-03-14 10:18:00,
2013-03-14 06:23:00,35.8,19.9,30.33,North,0,8.1,8.1,52,0.00,CLR,,0.00,WeatherDisplay:10.37,2013-03-14 10:23:00,
2013-03-14 06:28:00,35.8,19.9,30.33,North,0,4.9,4.9,52,0.00,CLR,,0.00,WeatherDisplay:10.37,2013-03-14 10:28:00,
2013-03-14 06:33:00,35.6,19.7,30.34,WSW,248,4.6,4.6,52,0.00,CLR,,0.00,WeatherDisplay:10.37,2013-03-14 10:33:00,
2013-03-14 06:39:00,35.6,19.7,30.34,NW,315,6.9,6.9,52,0.00,CLR,,0.00,WeatherDisplay:10.37,2013-03-14 10:39:00,
2013-03-14 06:44:00,35.6,19.7,30.34,NNE,22,8.1,8.1,52,0.00,CLR,,0.00,WeatherDisplay:10.37,2013-03-14 10:44:00,
2013-03-14 06:49:00,35.4,19.5,30.34,North,0,6.9,6.9,52,0.00,CLR,,0.00,WeatherDisplay:10.37,2013-03-14 10:49:00,
2013-03-14 06:54:00,35.4,19.5,30.34,NNW,338,3.3,3.3,52,0.00,CLR,,0.00,WeatherDisplay:10.37,2013-03-14 10:54:00,
2013-03-14 06:59:00,35.2,19.8,30.34,WSW,248,4.6,4.6,53,0.00,CLR,,0.00,WeatherDisplay:10.37,2013-03-14 10:59:00,
2013-03-14 07:04:00,35.2,19.8,30.34,West,270,4.6,4.6,53,0.00,CLR,,0.00,WeatherDisplay:10.37,2013-03-14 11:04:00,
2013-03-14 07:09:00,35.1,19.6,30.34,NW,315,4.0,4.0,53,0.00,CLR,,0.00,WeatherDisplay:10.37,2013-03-14 11:09:00,
2013-03-14 07:14:00,34.9,19.9,30.35,NNW,338,4.6,4.6,54,0.00,CLR,,0.00,WeatherDisplay:10.37,2013-03-14 11:14:00,
2013-03-14 07:19:00,34.9,19.9,30.35,NW,315,3.6,3.6,54,0.00,CLR,,0.00,WeatherDisplay:10.37,2013-03-14 11:19:00,
2013-03-14 07:24:00,34.9,19.9,30.35,NW,315,5.8,5.8,54,0.00,CLR,,0.00,WeatherDisplay:10.37,2013-03-14 11:24:00,
2013-03-14 07:29:00,34.7,19.7,30.35,WSW,248,4.6,4.6,54,0.00,CLR,,0.00,WeatherDisplay:10.37,2013-03-14 11:29:00,
2013-03-14 07:34:00,34.7,19.7,30.35,West,270,4.6,4.6,54,0.00,CLR,,0.00,WeatherDisplay:10.37,2013-03-14 11:34:00,
2013-03-14 07:39:00,34.5,20.0,30.36,NW,315,3.6,3.6,55,0.00,CLR,,0.00,WeatherDisplay:10.37,2013-03-14 11:39:00,
2013-03-14 07:44:00,34.7,20.2,30.36,WNW,292,3.8,3.8,55,0.00,CLR,,0.00,WeatherDisplay:10.37,2013-03-14 11:44:00,
2013-03-14 07:49:00,34.7,20.2,30.36,WNW,292,3.8,3.8,55,0.00,CLR,,0.00,WeatherDisplay:10.37,2013-03-14 11:49:00,
2013-03-14 07:54:00,34.7,20.2,30.37,West,270,6.9,6.9,55,0.00,CLR,,0.00,WeatherDisplay:10.37,2013-03-14 11:54:00,
2013-03-14 07:59:00,34.9,20.3,30.37,South,180,4.6,4.6,55,0.00,CLR,,0.00,WeatherDisplay:10.37,2013-03-14 11:59:00,
2013-03-14 08:04:00,34.9,20.3,30.37,NW,315,4.7,4.7,55,0.00,CLR,,0.00,WeatherDisplay:10.37,2013-03-14 12:04:00,
2013-03-14 08:09:00,34.9,20.3,30.38,NW,315,7.6,7.6,55,0.00,CLR,,0.00,WeatherDisplay:10.37,2013-03-14 12:09:00,
2013-03-14 08:14:00,35.2,20.2,30.38,NW,315,6.9,6.9,54,0.00,CLR,,0.00,WeatherDisplay:10.37,2013-03-14 12:14:00,
2013-03-14 08:19:00,35.2,20.2,30.38,NNW,338,8.1,8.5,54,0.00,CLR,,0.00,WeatherDisplay:10.37,2013-03-14 12:19:00,
2013-03-14 08:24:00,35.2,20.2,30.38,NNW,338,5.8,5.8,54,0.00,CLR,,0.00,WeatherDisplay:10.37,2013-03-14 12:24:00,
2013-03-14 08:29:00,35.6,20.6,30.38,NNW,338,5.8,5.8,54,0.00,CLR,,0.00,WeatherDisplay:10.37,2013-03-14 12:29:00,
2013-03-14 08:34:00,35.8,20.7,30.38,West,270,3.5,3.5,54,0.00,CLR,,0.00,WeatherDisplay:10.37,2013-03-14 12:34:00,
2013-03-14 08:39:00,36.0,20.9,30.39,WNW,292,5.8,5.8,54,0.00,CLR,,0.00,WeatherDisplay:10.37,2013-03-14 12:39:00,
2013-03-14 08:44:00,36.3,20.8,30.39,North,0,6.9,6.9,53,0.00,CLR,,0.00,WeatherDisplay:10.37,2013-03-14 12:44:00,
2013-03-14 08:49:00,36.5,20.5,30.39,NNW,338,4.6,4.7,52,0.00,CLR,,0.00,WeatherDisplay:10.37,2013-03-14 12:49:00,
2013-03-14 08:54:00,36.7,20.7,30.39,NW,315,6.9,6.9,52,0.00,CLR,,0.00,WeatherDisplay:10.37,2013-03-14 12:54:00,
2013-03-14 08:59:00,36.9,20.4,30.39,NE,45,4.6,4.6,51,0.00,CLR,,0.00,WeatherDisplay:10.37,2013-03-14 12:59:00,
2013-03-14 09:04:00,37.0,20.6,30.40,West,270,5.8,5.8,51,0.00,CLR,,0.00,WeatherDisplay:10.37,2013-03-14 13:04:00,
2013-03-14 09:09:00,37.4,20.9,30.40,WNW,292,9.2,9.2,51,0.00,CLR,,0.00,WeatherDisplay:10.37,2013-03-14 13:09:00,
2013-03-14 09:14:00,37.8,20.8,30.40,NNW,338,6.9,6.9,50,0.00,CLR,,0.00,WeatherDisplay:10.37,2013-03-14 13:14:00,
2013-03-14 09:19:00,37.9,20.5,30.40,North,0,5.8,5.8,49,0.00,CLR,,0.00,WeatherDisplay:10.37,2013-03-14 13:19:00,
2013-03-14 09:24:00,38.1,20.6,30.40,NW,315,8.5,8.5,49,0.00,CLR,,0.00,WeatherDisplay:10.37,2013-03-14 13:24:00,
2013-03-14 09:29:00,38.5,21.0,30.39,NW,315,8.3,8.3,49,0.00,CLR,,0.00,WeatherDisplay:10.37,2013-03-14 13:29:00,
2013-03-14 09:34:00,38.7,20.6,30.39,NW,315,10.4,10.4,48,0.00,CLR,,0.00,WeatherDisplay:10.37,2013-03-14 13:34:00,
2013-03-14 09:39:00,38.8,20.8,30.39,North,0,6.9,6.9,48,0.00,CLR,,0.00,WeatherDisplay:10.37,2013-03-14 13:39:00,
2013-03-14 09:44:00,38.8,19.8,30.39,East,90,11.5,11.5,46,0.00,CLR,,0.00,WeatherDisplay:10.37,2013-03-14 13:44:00,
2013-03-14 09:49:00,38.8,19.8,30.39,NNE,22,6.9,6.9,46,0.00,CLR,,0.00,WeatherDisplay:10.37,2013-03-14 13:49:00,
2013-03-14 09:54:00,39.2,19.6,30.39,North,0,9.2,9.2,45,0.00,CLR,,0.00,WeatherDisplay:10.37,2013-03-14 13:54:00,
2013-03-14 09:59:00,39.4,19.8,30.39,NNW,338,4.9,4.9,45,0.00,CLR,,0.00,WeatherDisplay:10.37,2013-03-14 13:59:00,
2013-03-14 10:04:00,39.7,20.6,30.39,WNW,292,9.2,9.2,46,0.00,CLR,,0.00,WeatherDisplay:10.37,2013-03-14 14:04:00,
2013-03-14 10:09:00,39.9,20.8,30.39,North,0,9.2,9.2,46,0.00,CLR,,0.00,WeatherDisplay:10.37,2013-03-14 14:09:00,
2013-03-14 10:14:00,40.1,20.4,30.39,NE,45,11.5,11.5,45,0.00,CLR,,0.00,WeatherDisplay:10.37,2013-03-14 14:14:00,
2013-03-14 10:19:00,40.1,19.9,30.39,NW,315,13.2,13.2,44,0.00,CLR,,0.00,WeatherDisplay:10.37,2013-03-14 14:19:00,
2013-03-14 10:24:00,40.1,19.9,30.39,NNW,338,9.2,9.2,44,0.00,CLR,,0.00,WeatherDisplay:10.37,2013-03-14 14:24:00,
2013-03-14 10:29:00,40.3,20.1,30.39,North,0,11.5,11.5,44,0.00,CLR,,0.00,WeatherDisplay:10.37,2013-03-14 14:29:00,
2013-03-14 10:34:00,40.5,20.8,30.39,West,270,11.5,11.5,45,0.00,CLR,,0.00,WeatherDisplay:10.37,2013-03-14 14:34:00,
2013-03-14 10:39:00,40.6,20.4,30.39,ENE,68,10.4,10.4,44,0.00,CLR,,0.00,WeatherDisplay:10.37,2013-03-14 14:39:00,
2013-03-14 10:44:00,41.0,20.7,30.39,NNW,338,8.1,8.1,44,0.00,CLR,,0.00,WeatherDisplay:10.37,2013-03-14 14:44:00,
2013-03-14 10:49:00,41.2,20.9,30.39,North,0,4.6,4.6,44,0.00,CLR,,0.00,WeatherDisplay:10.37,2013-03-14 14:49:00,
2013-03-14 10:54:00,41.5,21.2,30.39,North,0,8.5,8.5,44,0.00,CLR,,0.00,WeatherDisplay:10.37,2013-03-14 14:54:00,
2013-03-14 10:59:00,42.1,21.7,30.39,West,270,6.2,6.2,44,0.00,CLR,,0.00,WeatherDisplay:10.37,2013-03-14 14:59:00,
2013-03-14 11:04:00,42.3,21.9,30.39,NW,315,8.1,8.1,44,0.00,CLR,,0.00,WeatherDisplay:10.37,2013-03-14 15:04:00,
2013-03-14 11:09:00,42.6,22.2,30.38,NW,315,6.9,6.9,44,0.00,CLR,,0.00,WeatherDisplay:10.37,2013-03-14 15:09:00,
2013-03-14 11:14:00,42.8,21.8,30.39,NW,315,9.2,9.2,43,0.00,CLR,,0.00,WeatherDisplay:10.37,2013-03-14 15:14:00,
2013-03-14 11:19:00,42.8,21.8,30.39,NNE,22,6.4,6.4,43,0.00,CLR,,0.00,WeatherDisplay:10.37,2013-03-14 15:19:00,
2013-03-14 11:24:00,43.3,22.3,30.38,NE,45,8.1,8.1,43,0.00,CLR,,0.00,WeatherDisplay:10.37,2013-03-14 15:24:00,
2013-03-14 11:29:00,43.5,22.5,30.39,NW,315,4.9,4.9,43,0.00,CLR,,0.00,WeatherDisplay:10.37,2013-03-14 15:29:00,
2013-03-14 11:34:00,43.7,22.6,30.39,North,0,5.8,5.9,43,0.00,CLR,,0.00,WeatherDisplay:10.37,2013-03-14 15:34:00,
2013-03-14 11:39:00,43.9,22.8,30.38,WSW,248,9.2,9.2,43,0.00,CLR,,0.00,WeatherDisplay:10.37,2013-03-14 15:39:00,
2013-03-14 11:44:00,44.2,22.6,30.39,South,180,8.1,8.1,42,0.00,CLR,,0.00,WeatherDisplay:10.37,2013-03-14 15:44:00,
2013-03-14 11:49:00,44.4,22.7,30.39,West,270,4.6,4.6,42,0.00,CLR,,0.00,WeatherDisplay:10.37,2013-03-14 15:49:00,
2013-03-14 11:54:00,44.6,22.3,30.39,North,0,5.8,5.8,41,0.00,CLR,,0.00,WeatherDisplay:10.37,2013-03-14 15:54:00,
2013-03-14 11:59:00,44.8,23.1,30.39,North,0,6.9,6.9,42,0.00,CLR,,0.00,WeatherDisplay:10.37,2013-03-14 15:59:00,
2013-03-14 12:04:00,44.8,23.1,30.39,NW,315,5.8,5.8,42,0.00,CLR,,0.00,WeatherDisplay:10.37,2013-03-14 16:04:00,
2013-03-14 12:09:00,45.0,22.6,30.39,SW,225,9.0,9.0,41,0.00,CLR,,0.00,WeatherDisplay:10.37,2013-03-14 16:09:00,
2013-03-14 12:14:00,45.1,22.2,30.39,North,0,8.1,8.1,40,0.00,CLR,,0.00,WeatherDisplay:10.37,2013-03-14 16:14:00,
2013-03-14 12:19:00,45.1,22.2,30.39,NNW,338,6.9,6.9,40,0.00,CLR,,0.00,WeatherDisplay:10.37,2013-03-14 16:19:00,
2013-03-14 12:24:00,45.5,22.5,30.38,NNE,22,11.8,11.8,40,0.00,CLR,,0.00,WeatherDisplay:10.37,2013-03-14 16:24:00,
2013-03-14 12:29:00,45.3,21.8,30.38,North,0,9.2,9.2,39,0.00,CLR,,0.00,WeatherDisplay:10.37,2013-03-14 16:29:00,
2013-03-14 12:34:00,45.5,21.9,30.38,NW,315,5.8,5.8,39,0.00,CLR,,0.00,WeatherDisplay:10.37,2013-03-14 16:34:00,
2013-03-14 12:39:00,45.5,22.5,30.37,NNW,338,7.8,7.8,40,0.00,CLR,,0.00,WeatherDisplay:10.37,2013-03-14 16:39:00,
2013-03-14 12:44:00,45.7,22.7,30.37,NE,45,7.6,7.6,40,0.00,CLR,,0.00,WeatherDisplay:10.37,2013-03-14 16:44:00,
2013-03-14 12:49:00,46.2,23.2,30.37,WSW,248,5.8,5.8,40,0.00,CLR,,0.00,WeatherDisplay:10.37,2013-03-14 16:49:00,
2013-03-14 12:54:00,46.4,23.4,30.36,NNW,338,4.7,4.7,40,0.00,CLR,,0.00,WeatherDisplay:10.37,2013-03-14 16:54:00,
2013-03-14 12:59:00,46.8,23.7,30.36,WSW,248,5.8,5.8,40,0.00,CLR,,0.00,WeatherDisplay:10.37,2013-03-14 16:59:00,
2013-03-14 13:04:00,46.9,23.8,30.36,North,0,9.2,9.2,40,0.00,CLR,,0.00,WeatherDisplay:10.37,2013-03-14 17:04:00,
2013-03-14 13:09:00,47.1,23.4,30.36,West,270,9.2,9.2,39,0.00,CLR,,0.00,WeatherDisplay:10.37,2013-03-14 17:09:00,
2013-03-14 13:14:00,47.5,23.7,30.36,NW,315,4.6,4.6,39,0.00,CLR,,0.00,WeatherDisplay:10.37,2013-03-14 17:14:00,
2013-03-14 13:19:00,47.7,22.6,30.36,North,0,10.4,10.4,37,0.00,CLR,,0.00,WeatherDisplay:10.37,2013-03-14 17:19:00,
2013-03-14 13:24:00,47.5,23.1,30.35,NW,315,6.9,6.9,38,0.00,CLR,,0.00,WeatherDisplay:10.37,2013-03-14 17:24:00,
2013-03-14 13:29:00,47.5,23.1,30.35,West,270,10.4,10.4,38,0.00,CLR,,0.00,WeatherDisplay:10.37,2013-03-14 17:29:00,
2013-03-14 13:34:00,47.8,23.4,30.34,North,0,7.6,7.6,38,0.00,CLR,,0.00,WeatherDisplay:10.37,2013-03-14 17:34:00,
2013-03-14 13:39:00,48.0,23.6,30.34,WSW,248,11.5,11.5,38,0.00,CLR,,0.00,WeatherDisplay:10.37,2013-03-14 17:39:00,
2013-03-14 13:44:00,48.0,23.6,30.34,NW,315,11.5,11.5,38,0.00,CLR,,0.00,WeatherDisplay:10.37,2013-03-14 17:44:00,
2013-03-14 13:49:00,48.4,23.9,30.34,WSW,248,6.9,6.9,38,0.00,CLR,,0.00,WeatherDisplay:10.37,2013-03-14 17:49:00,
2013-03-14 13:54:00,48.6,24.1,30.34,West,270,9.7,9.7,38,0.00,CLR,,0.00,WeatherDisplay:10.37,2013-03-14 17:54:00,
2013-03-14 13:59:00,48.9,24.4,30.34,WNW,292,5.8,5.8,38,0.00,CLR,,0.00,WeatherDisplay:10.37,2013-03-14 17:59:00,
2013-03-14 14:04:00,48.9,24.4,30.34,WNW,292,8.7,8.7,38,0.00,CLR,,0.00,WeatherDisplay:10.37,2013-03-14 18:04:00,
2013-03-14 14:09:00,49.3,24.7,30.34,NW,315,4.6,4.6,38,0.00,CLR,,0.00,WeatherDisplay:10.37,2013-03-14 18:09:00,
2013-03-14 14:14:00,49.3,24.7,30.33,NE,45,11.5,11.5,38,0.00,CLR,,0.00,WeatherDisplay:10.37,2013-03-14 18:14:00,
2013-03-14 14:19:00,49.6,25.0,30.33,NNW,338,11.5,11.5,38,0.00,CLR,,0.00,WeatherDisplay:10.37,2013-03-14 18:19:00,
2013-03-14 14:24:00,49.8,24.6,30.33,NNW,338,11.5,11.5,37,0.00,CLR,,0.00,WeatherDisplay:10.37,2013-03-14 18:24:00,
2013-03-14 14:29:00,49.8,24.6,30.33,NNW,338,5.8,5.8,37,0.00,CLR,,0.00,WeatherDisplay:10.37,2013-03-14 18:29:00,
2013-03-14 14:35:00,50.0,24.7,30.33,NNW,338,6.0,10.0,37,0.00,CLR,CLR,0.00,WeatherDisplay:10.37,2013-03-14 18:35:00,
2013-03-14 14:40:00,50.0,24.7,30.32,NNW,338,2.3,3.8,37,0.00,CLR,,0.00,WeatherDisplay:10.37,2013-03-14 18:40:00,
2013-03-14 14:45:00,50.2,25.5,30.32,NW,315,8.1,8.1,38,0.00,CLR,,0.00,WeatherDisplay:10.37,2013-03-14 18:45:00,
2013-03-14 14:50:00,50.5,25.8,30.32,NW,315,4.6,4.6,38,0.00,CLR,,0.00,WeatherDisplay:10.37,2013-03-14 18:50:00,
2013-03-14 14:55:00,50.8,25.4,30.32,West,262,5.0,8.0,37,0.00,CLR,CLR,0.00,WeatherDisplay:10.37,2013-03-14 18:55:00,
2013-03-14 15:00:00,51.1,25.7,30.32,WNW,296,5.0,6.0,37,0.00,CLR,CLR,0.00,WeatherDisplay:10.37,2013-03-14 19:00:00,
2013-03-14 15:05:00,51.3,25.8,30.31,WNW,295,5.0,10.0,37,0.00,CLR,CLR,0.00,WeatherDisplay:10.37,2013-03-14 19:05:00,
2013-03-14 15:10:00,51.4,25.3,30.31,West,270,7.8,7.8,36,0.00,CLR,,0.00,WeatherDisplay:10.37,2013-03-14 19:10:00,
2013-03-14 15:15:00,51.6,25.5,30.31,WNW,292,7.6,7.6,36,0.00,CLR,,0.00,WeatherDisplay:10.37,2013-03-14 19:15:00,
2013-03-14 15:20:00,51.8,25.7,30.31,NW,314,6.0,8.0,36,0.00,CLR,CLR,0.00,WeatherDisplay:10.37,2013-03-14 19:20:00,
2013-03-14 15:25:00,51.8,23.6,30.31,North,0,9.2,9.2,33,0.00,CLR,,0.00,WeatherDisplay:10.37,2013-03-14 19:25:00,
2013-03-14 15:30:00,51.8,24.3,30.31,North,349,3.0,9.0,34,0.00,CLR,CLR,0.00,WeatherDisplay:10.37,2013-03-14 19:30:00,
2013-03-14 15:35:00,51.8,24.3,30.31,North,351,6.0,9.0,34,0.00,CLR,CLR,0.00,WeatherDisplay:10.37,2013-03-14 19:35:00,
2013-03-14 15:40:00,52.0,23.7,30.31,NNW,338,5.8,5.8,33,0.00,CLR,,0.00,WeatherDisplay:10.37,2013-03-14 19:40:00,
2013-03-14 15:45:00,52.2,24.6,30.31,North,0,5.9,5.9,34,0.00,CLR,,0.00,WeatherDisplay:10.37,2013-03-14 19:45:00,
2013-03-14 15:50:00,52.3,25.5,30.31,West,280,5.0,7.0,35,0.00,CLR,CLR,0.00,WeatherDisplay:10.37,2013-03-14 19:50:00,
2013-03-14 15:55:00,52.9,26.6,30.30,North,0,3.5,3.5,36,0.00,CLR,,0.00,WeatherDisplay:10.37,2013-03-14 19:55:00,
2013-03-14 16:00:00,53.1,25.4,30.30,North,0,7.1,7.1,34,0.00,CLR,,0.00,WeatherDisplay:10.37,2013-03-14 20:00:00,
2013-03-14 16:05:00,53.2,26.3,30.30,West,270,9.2,9.2,35,0.00,CLR,,0.00,WeatherDisplay:10.37,2013-03-14 20:05:00,
2013-03-14 16:10:00,53.4,25.7,30.30,North,0,6.7,6.7,34,0.00,CLR,,0.00,WeatherDisplay:10.37,2013-03-14 20:10:00,
2013-03-14 16:15:00,53.2,24.8,30.30,NNE,22,10.4,10.4,33,0.00,CLR,,0.00,WeatherDisplay:10.37,2013-03-14 20:15:00,
2013-03-14 16:20:00,53.2,24.8,30.30,SW,225,3.5,3.5,33,0.00,CLR,,0.00,WeatherDisplay:10.37,2013-03-14 20:20:00,
2013-03-14 16:25:00,53.2,25.6,30.30,SW,225,8.1,8.1,34,0.00,CLR,,0.00,WeatherDisplay:10.37,2013-03-14 20:25:00,
2013-03-14 16:30:00,53.2,25.6,30.29,South,180,6.9,6.9,34,0.00,CLR,,0.00,WeatherDisplay:10.37,2013-03-14 20:30:00,
2013-03-14 16:35:00,53.4,25.7,30.29,West,270,5.8,5.8,34,0.00,CLR,,0.00,WeatherDisplay:10.37,2013-03-14 20:35:00,
2013-03-14 16:40:00,53.1,24.7,30.29,NNW,338,4.6,4.6,33,0.00,CLR,,0.00,WeatherDisplay:10.37,2013-03-14 20:40:00,
2013-03-14 16:45:00,53.1,25.4,30.29,NNW,338,4.7,4.7,34,0.00,CLR,,0.00,WeatherDisplay:10.37,2013-03-14 20:45:00,
2013-03-14 16:50:00,53.1,25.4,30.29,NW,315,6.9,6.9,34,0.00,CLR,,0.00,WeatherDisplay:10.37,2013-03-14 20:50:00,
2013-03-14 16:55:00,53.2,25.6,30.29,NW,315,4.6,4.6,34,0.00,CLR,,0.00,WeatherDisplay:10.37,2013-03-14 20:55:00,
2013-03-14 17:00:00,53.4,25.7,30.29,West,270,8.1,8.1,34,0.00,CLR,,0.00,WeatherDisplay:10.37,2013-03-14 21:00:00,
2013-03-14 17:05:00,53.6,25.9,30.29,South,180,4.6,4.6,34,0.00,CLR,,0.00,WeatherDisplay:10.37,2013-03-14 21:05:00,
2013-03-14 17:10:00,53.6,25.2,30.29,NW,315,8.1,8.1,33,0.00,CLR,,0.00,WeatherDisplay:10.37,2013-03-14 21:10:00,
2013-03-14 17:15:00,53.6,25.2,30.28,NW,315,4.6,4.6,33,0.00,CLR,,0.00,WeatherDisplay:10.37,2013-03-14 21:15:00,
2013-03-14 17:20:00,53.6,25.2,30.28,NNW,338,3.5,3.5,33,0.00,CLR,,0.00,WeatherDisplay:10.37,2013-03-14 21:20:00,
2013-03-14 17:25:00,53.6,25.2,30.28,ENE,68,5.8,5.8,33,0.00,CLR,,0.00,WeatherDisplay:10.37,2013-03-14 21:25:00,
2013-03-14 17:30:00,53.6,25.2,30.28,West,270,4.6,4.6,33,0.00,CLR,,0.00,WeatherDisplay:10.37,2013-03-14 21:30:00,
2013-03-14 17:35:00,53.6,25.2,30.28,North,0,4.6,4.6,33,0.00,CLR,,0.00,WeatherDisplay:10.37,2013-03-14 21:35:00,
2013-03-14 17:40:00,53.6,25.2,30.28,West,270,5.4,5.4,33,0.00,CLR,,0.00,WeatherDisplay:10.37,2013-03-14 21:40:00,
2013-03-14 17:45:00,53.4,25.0,30.28,NNW,338,4.6,4.6,33,0.00,CLR,,0.00,WeatherDisplay:10.37,2013-03-14 21:45:00,
2013-03-14 17:50:00,53.4,25.7,30.28,NNW,338,3.1,3.1,34,0.00,CLR,,0.00,WeatherDisplay:10.37,2013-03-14 21:50:00,
2013-03-14 17:55:00,53.4,25.7,30.28,WNW,292,4.6,4.6,34,0.00,CLR,,0.00,WeatherDisplay:10.37,2013-03-14 21:55:00,
2013-03-14 18:00:00,53.2,25.6,30.28,WSW,248,5.2,5.2,34,0.00,CLR,,0.00,WeatherDisplay:10.37,2013-03-14 22:00:00,
2013-03-14 18:05:00,53.2,25.6,30.28,SW,225,3.5,3.5,34,0.00,CLR,,0.00,WeatherDisplay:10.37,2013-03-14 22:05:00,
2013-03-14 18:10:00,53.1,24.7,30.28,NNW,338,5.8,5.8,33,0.00,CLR,,0.00,WeatherDisplay:10.37,2013-03-14 22:10:00,
2013-03-14 18:15:00,53.1,25.4,30.28,North,0,4.6,4.6,34,0.00,CLR,,0.00,WeatherDisplay:10.37,2013-03-14 22:15:00,
2013-03-14 18:20:00,52.9,25.2,30.28,South,180,3.5,3.5,34,0.00,CLR,,0.00,WeatherDisplay:10.37,2013-03-14 22:20:00,
2013-03-14 18:25:00,52.9,25.2,30.28,NE,45,2.6,2.6,34,0.00,CLR,,0.00,WeatherDisplay:10.37,2013-03-14 22:25:00,
2013-03-14 18:30:00,52.7,25.8,30.28,NW,315,5.2,5.2,35,0.00,CLR,,0.00,WeatherDisplay:10.37,2013-03-14 22:30:00,
2013-03-14 18:35:00,52.5,24.9,30.28,NW,315,4.6,6.9,34,0.00,CLR,,0.00,WeatherDisplay:10.37,2013-03-14 22:35:00,
2013-03-14 18:40:00,52.2,25.3,30.28,NE,45,2.9,2.9,35,0.00,CLR,,0.00,WeatherDisplay:10.37,2013-03-14 22:40:00,
2013-03-14 18:45:00,52.0,25.1,30.28,WSW,248,5.4,5.4,35,0.00,CLR,,0.00,WeatherDisplay:10.37,2013-03-14 22:45:00,
2013-03-14 18:50:00,52.0,25.8,30.28,NNW,338,4.6,4.6,36,0.00,CLR,,0.00,WeatherDisplay:10.37,2013-03-14 22:50:00,
2013-03-14 18:55:00,51.6,25.5,30.29,West,270,5.8,5.8,36,0.00,CLR,,0.00,WeatherDisplay:10.37,2013-03-14 22:55:00,
2013-03-14 19:00:00,51.4,25.3,30.29,WSW,248,4.6,4.6,36,0.00,CLR,,0.00,WeatherDisplay:10.37,2013-03-14 23:00:00,
2013-03-14 19:05:00,51.4,25.3,30.29,WSW,248,2.3,2.3,36,0.00,CLR,,0.00,WeatherDisplay:10.37,2013-03-14 23:05:00,
2013-03-14 19:10:00,51.1,25.0,30.29,WSW,248,2.3,2.3,36,0.00,CLR,,0.00,WeatherDisplay:10.37,2013-03-14 23:10:00,
2013-03-14 19:15:00,50.7,25.4,30.29,SW,225,1.1,1.1,37,0.00,CLR,,0.00,WeatherDisplay:10.37,2013-03-14 23:15:00,
2013-03-14 19:20:00,50.5,25.2,30.29,WSW,248,2.3,2.3,37,0.00,CLR,,0.00,WeatherDisplay:10.37,2013-03-14 23:20:00,
2013-03-14 19:25:00,50.4,25.0,30.29,SW,225,1.1,1.1,37,0.00,CLR,,0.00,WeatherDisplay:10.37,2013-03-14 23:25:00,
2013-03-14 19:30:00,50.2,24.9,30.29,WSW,248,1.1,1.1,37,0.00,CLR,,0.00,WeatherDisplay:10.37,2013-03-14 23:30:00,
2013-03-14 19:35:00,49.8,25.2,30.29,WSW,248,1.6,1.6,38,0.00,CLR,,0.00,WeatherDisplay:10.37,2013-03-14 23:35:00,
2013-03-14 19:40:00,49.6,25.0,30.29,WSW,248,1.1,1.1,38,0.00,CLR,,0.00,WeatherDisplay:10.37,2013-03-14 23:40:00,
2013-03-14 19:45:00,49.3,24.7,30.30,WSW,248,1.1,1.1,38,0.00,CLR,,0.00,WeatherDisplay:10.37,2013-03-14 23:45:00,
2013-03-14 19:50:00,48.9,24.4,30.30,West,270,1.1,1.1,38,0.00,CLR,,0.00,WeatherDisplay:10.37,2013-03-14 23:50:00,
2013-03-14 19:55:00,48.7,24.2,30.30,SW,225,1.8,1.8,38,0.00,CLR,,0.00,WeatherDisplay:10.37,2013-03-14 23:55:00,
2013-03-14 20:00:00,48.6,24.1,30.30,WSW,248,1.1,1.1,38,0.00,CLR,,0.00,WeatherDisplay:10.37,2013-03-15 00:00:00,
2013-03-14 20:05:00,48.2,24.4,30.30,WSW,248,1.1,1.1,39,0.00,CLR,,0.00,WeatherDisplay:10.37,2013-03-15 00:05:00,
2013-03-14 20:10:00,48.0,24.2,30.30,SW,225,0.0,0.0,39,0.00,CLR,,0.00,WeatherDisplay:10.37,2013-03-15 00:10:00,
2013-03-14 20:15:00,47.7,24.5,30.30,SW,225,1.1,1.1,40,0.00,CLR,,0.00,WeatherDisplay:10.37,2013-03-15 00:15:00,
2013-03-14 20:20:00,47.5,24.3,30.30,SW,225,0.0,0.0,40,0.00,CLR,,0.00,WeatherDisplay:10.37,2013-03-15 00:20:00,
2013-03-14 20:25:00,47.1,24.6,30.31,SSW,202,0.5,0.5,41,0.00,CLR,,0.00,WeatherDisplay:10.37,2013-03-15 00:25:00,
2013-03-14 20:30:00,46.9,25.0,30.31,SSW,202,0.0,0.0,42,0.00,CLR,,0.00,WeatherDisplay:10.37,2013-03-15 00:30:00,
2013-03-14 20:35:00,46.4,24.5,30.31,SW,225,1.1,1.1,42,0.00,CLR,,0.00,WeatherDisplay:10.37,2013-03-15 00:35:00,
2013-03-14 20:40:00,46.0,24.8,30.31,SSW,202,1.1,1.1,43,0.00,CLR,,0.00,WeatherDisplay:10.37,2013-03-15 00:40:00,
2013-03-14 20:45:00,45.7,25.0,30.31,SW,225,1.1,1.1,44,0.00,CLR,,0.00,WeatherDisplay:10.37,2013-03-15 00:45:00,
2013-03-14 20:50:00,45.3,25.2,30.31,SW,225,1.1,1.1,45,0.00,CLR,,0.00,WeatherDisplay:10.37,2013-03-15 00:50:00,
2013-03-14 20:55:00,45.1,25.0,30.31,SW,225,1.1,1.1,45,0.00,CLR,,0.00,WeatherDisplay:10.37,2013-03-15 00:55:00,
2013-03-14 21:01:00,45.0,24.9,30.31,SW,225,1.1,0.0,45,0.00,CLR,,0.00,WeatherDisplay:10.37,2013-03-15 01:01:00,
2013-03-14 21:06:00,44.8,25.2,30.31,SW,225,0.9,0.9,46,0.00,CLR,,0.00,WeatherDisplay:10.37,2013-03-15 01:06:00,
2013-03-14 21:11:00,44.6,25.1,30.31,WSW,248,1.1,0.0,46,0.00,CLR,,0.00,WeatherDisplay:10.37,2013-03-15 01:11:00,
2013-03-14 21:16:00,44.4,24.9,30.31,SW,225,0.5,0.5,46,0.00,CLR,,0.00,WeatherDisplay:10.37,2013-03-15 01:16:00,
2013-03-14 21:21:00,44.2,25.3,30.31,SW,225,0.0,0.9,47,0.00,CLR,,0.00,WeatherDisplay:10.37,2013-03-15 01:21:00,
2013-03-14 21:26:00,44.1,25.1,30.31,SW,225,1.1,1.1,47,0.00,CLR,,0.00,WeatherDisplay:10.37,2013-03-15 01:26:00,
2013-03-14 21:31:00,43.7,25.3,30.31,SW,225,1.1,1.1,48,0.00,CLR,,0.00,WeatherDisplay:10.37,2013-03-15 01:31:00,
2013-03-14 21:36:00,43.5,25.1,30.31,SW,225,0.5,0.5,48,0.00,CLR,,0.00,WeatherDisplay:10.37,2013-03-15 01:36:00,
2013-03-14 21:41:00,43.5,25.6,30.31,SW,225,1.1,1.1,49,0.00,CLR,,0.00,WeatherDisplay:10.37,2013-03-15 01:41:00,
2013-03-14 21:46:00,43.3,25.4,30.31,SW,225,0.5,0.5,49,0.00,CLR,,0.00,WeatherDisplay:10.37,2013-03-15 01:46:00,
2013-03-14 21:51:00,43.2,25.3,30.31,WSW,248,0.0,0.0,49,0.00,CLR,,0.00,WeatherDisplay:10.37,2013-03-15 01:51:00,
2013-03-14 21:56:00,43.2,25.3,30.31,SW,225,0.0,0.0,49,0.00,CLR,,0.00,WeatherDisplay:10.37,2013-03-15 01:56:00,
2013-03-14 22:01:00,43.0,25.6,30.31,SW,225,0.0,0.0,50,0.00,CLR,,0.00,WeatherDisplay:10.37,2013-03-15 02:01:00,
2013-03-14 22:06:00,43.0,25.6,30.32,SW,225,0.0,0.5,50,0.00,CLR,,0.00,WeatherDisplay:10.37,2013-03-15 02:06:00,
2013-03-14 22:11:00,42.8,25.4,30.32,SW,225,1.1,1.1,50,0.00,CLR,,0.00,WeatherDisplay:10.37,2013-03-15 02:11:00,
2013-03-14 22:16:00,42.8,25.9,30.32,WSW,248,0.0,0.0,51,0.00,CLR,,0.00,WeatherDisplay:10.37,2013-03-15 02:16:00,
2013-03-14 22:21:00,42.6,25.7,30.32,WSW,248,0.0,0.0,51,0.00,CLR,,0.00,WeatherDisplay:10.37,2013-03-15 02:21:00,
2013-03-14 22:26:00,42.4,26.0,30.32,SW,225,0.0,0.0,52,0.00,CLR,,0.00,WeatherDisplay:10.37,2013-03-15 02:26:00,
2013-03-14 22:31:00,42.4,26.0,30.32,SW,225,0.0,0.0,52,0.00,CLR,,0.00,WeatherDisplay:10.37,2013-03-15 02:31:00,
2013-03-14 22:36:00,42.3,25.4,30.32,SW,225,1.1,1.1,51,0.00,CLR,,0.00,WeatherDisplay:10.37,2013-03-15 02:36:00,
2013-03-14 22:42:00,42.1,25.7,30.32,SW,225,1.1,0.0,52,0.00,CLR,,0.00,WeatherDisplay:10.37,2013-03-15 02:42:00,
2013-03-14 22:47:00,41.9,25.5,30.32,SW,225,0.0,0.0,52,0.00,CLR,,0.00,WeatherDisplay:10.37,2013-03-15 02:47:00,
2013-03-14 22:52:00,41.7,25.4,30.32,SW,225,0.0,0.0,52,0.00,CLR,,0.00,WeatherDisplay:10.37,2013-03-15 02:52:00,
2013-03-14 22:57:00,41.7,25.8,30.32,SW,225,1.1,0.0,53,0.00,CLR,,0.00,WeatherDisplay:10.37,2013-03-15 02:57:00,
2013-03-14 23:02:00,41.5,25.7,30.32,SW,225,0.0,0.0,53,0.00,CLR,,0.00,WeatherDisplay:10.37,2013-03-15 03:02:00,
2013-03-14 23:07:00,41.5,25.7,30.32,SW,225,0.5,0.5,53,0.00,CLR,,0.00,WeatherDisplay:10.37,2013-03-15 03:07:00,
2013-03-14 23:12:00,41.4,25.5,30.32,SW,225,0.5,0.5,53,0.00,CLR,,0.00,WeatherDisplay:10.37,2013-03-15 03:12:00,
2013-03-14 23:17:00,41.4,25.5,30.32,SW,225,1.1,1.1,53,0.00,CLR,,0.00,WeatherDisplay:10.37,2013-03-15 03:17:00,
2013-03-14 23:22:00,41.4,25.5,30.32,SW,225,1.1,1.1,53,0.00,CLR,,0.00,WeatherDisplay:10.37,2013-03-15 03:22:00,
2013-03-14 23:27:00,41.4,25.5,30.32,SW,225,1.1,0.0,53,0.00,CLR,,0.00,WeatherDisplay:10.37,2013-03-15 03:27:00,
2013-03-14 23:32:00,41.2,25.3,30.31,SW,225,0.0,0.0,53,0.00,CLR,,0.00,WeatherDisplay:10.37,2013-03-15 03:32:00,
2013-03-14 23:37:00,41.0,25.6,30.31,SW,225,0.0,0.5,54,0.00,CLR,,0.00,WeatherDisplay:10.37,2013-03-15 03:37:00,
2013-03-14 23:43:00,40.8,25.4,30.31,SW,225,0.0,0.0,54,0.00,CLR,,0.00,WeatherDisplay:10.37,2013-03-15 03:43:00,
2013-03-14 23:48:00,40.6,25.3,30.31,SW,225,0.0,0.0,54,0.00,CLR,,0.00,WeatherDisplay:10.37,2013-03-15 03:48:00,
2013-03-14 23:53:00,40.5,25.5,30.31,SW,225,0.0,0.0,55,0.00,CLR,,0.00,WeatherDisplay:10.37,2013-03-15 03:53:00,
2013-03-14 23:58:00,40.3,25.4,30.31,SW,225,0.0,0.0,55,0.00,CLR,,0.00,WeatherDisplay:10.37,2013-03-15 03:58:00,